createdAt,value
2019-05-21T00:01:41.289Z,9.38
2019-05-21T00:04:09.582Z,9.33
2019-05-21T00:06:37.881Z,10.58
2019-05-21T00:09:06.638Z,9.93
2019-05-21T00:11:35.003Z,9.95
2019-05-21T00:14:03.393Z,9.83
2019-05-21T00:16:31.673Z,8.83
2019-05-21T00:19:00.027Z,8.70
2019-05-21T00:21:28.393Z,8.05
2019-05-21T00:23:56.757Z,8.10
2019-05-21T00:26:25.123Z,7.47
2019-05-21T00:29:11.656Z,7.53
2019-05-21T00:31:58.210Z,9.43
2019-05-21T00:34:44.707Z,7.20
2019-05-21T00:37:31.236Z,7.83
2019-05-21T00:40:18.051Z,7.80
2019-05-21T00:42:46.831Z,8.50
2019-05-21T00:45:15.201Z,7.92
2019-05-21T00:47:43.564Z,7.72
2019-05-21T00:50:12.225Z,7.65
2019-05-21T00:52:40.557Z,7.75
2019-05-21T00:55:08.851Z,8.10
2019-05-21T00:57:37.164Z,7.67
2019-05-21T01:00:06.592Z,8.05
2019-05-21T01:02:34.993Z,7.83
2019-05-21T01:05:03.557Z,7.92
2019-05-21T01:07:31.926Z,7.60
2019-05-21T01:10:00.295Z,6.90
2019-05-21T01:12:28.584Z,7.35
2019-05-21T01:14:56.877Z,7.80
2019-05-21T01:17:25.173Z,7.30
2019-05-21T01:19:53.541Z,6.80
2019-05-21T01:22:21.909Z,7.50
2019-05-21T01:24:50.262Z,6.45
2019-05-21T01:27:18.636Z,6.60
2019-05-21T01:29:46.939Z,6.65
2019-05-21T01:32:34.583Z,6.70
2019-05-21T01:35:16.121Z,5.80
2019-05-21T01:37:33.593Z,6.10
2019-05-21T01:40:01.898Z,5.78
2019-05-21T01:42:30.274Z,6.10
2019-05-21T01:44:58.637Z,6.15
2019-05-21T01:47:26.928Z,6.22
2019-05-21T01:50:14.567Z,6.92
2019-05-21T01:52:42.854Z,6.45
2019-05-21T01:55:11.229Z,6.60
2019-05-21T01:57:39.521Z,6.55
2019-05-21T02:00:08.477Z,6.60
2019-05-21T02:02:36.834Z,7.00
2019-05-21T02:05:06.493Z,7.40
2019-05-21T02:07:34.862Z,6.90
2019-05-21T02:10:04.424Z,6.90
2019-05-21T02:12:32.797Z,7.10
2019-05-21T02:15:01.156Z,7.25
2019-05-21T02:17:29.513Z,6.97
2019-05-21T02:19:57.805Z,6.50
2019-05-21T02:22:45.435Z,6.45
2019-05-21T02:25:14.002Z,6.87
2019-05-21T02:27:42.357Z,6.95
2019-05-21T02:30:10.834Z,6.90
2019-05-21T02:32:39.209Z,6.78
2019-05-21T02:35:07.761Z,6.90
2019-05-21T02:37:36.150Z,6.72
2019-05-21T02:40:06.082Z,6.58
2019-05-21T02:42:34.365Z,6.62
2019-05-21T02:45:02.736Z,6.35
2019-05-21T02:47:31.231Z,6.30
2019-05-21T02:49:59.648Z,6.78
2019-05-21T02:52:28.013Z,6.78
2019-05-21T02:54:56.369Z,6.08
2019-05-21T02:57:26.379Z,6.25
2019-05-21T02:59:56.380Z,6.05
2019-05-21T03:02:38.266Z,6.20
2019-05-21T03:05:06.646Z,5.75
2019-05-21T03:07:35.198Z,5.80
2019-05-21T03:10:04.054Z,5.72
2019-05-21T03:12:32.414Z,5.10
2019-05-21T03:15:00.701Z,5.35
2019-05-21T03:17:29.090Z,5.83
2019-05-21T03:19:57.457Z,4.92
2019-05-21T03:22:31.568Z,5.40
2019-05-21T03:25:02.364Z,5.25
2019-05-21T03:27:29.875Z,5.17
2019-05-21T03:29:58.168Z,5.40
2019-05-21T03:32:26.531Z,4.83
2019-05-21T03:34:54.810Z,5.45
2019-05-21T03:37:23.106Z,5.08
2019-05-21T03:39:51.490Z,5.40
2019-05-21T03:42:19.781Z,5.03
2019-05-21T03:44:58.914Z,4.87
2019-05-21T03:47:18.090Z,5.17
2019-05-21T03:49:46.443Z,4.50
2019-05-21T03:52:14.747Z,4.65
2019-05-21T03:54:43.038Z,4.70
2019-05-21T03:57:11.415Z,4.80
2019-05-21T03:59:39.696Z,4.70
2019-05-21T04:02:08.072Z,4.83
2019-05-21T04:04:36.442Z,5.30
2019-05-21T04:07:04.801Z,4.33
2019-05-21T04:09:52.445Z,4.95
2019-05-21T04:12:20.866Z,4.90
2019-05-21T04:14:50.805Z,5.33
2019-05-21T04:17:26.673Z,4.67
2019-05-21T04:19:55.039Z,4.35
2019-05-21T04:22:23.406Z,5.00
2019-05-21T04:24:51.794Z,4.47
2019-05-21T04:27:20.142Z,4.97
2019-05-21T04:29:54.123Z,4.87
2019-05-21T04:32:22.399Z,4.60
2019-05-21T04:34:50.686Z,3.92
2019-05-21T04:37:18.981Z,4.10
2019-05-21T04:39:47.364Z,4.05
2019-05-21T04:42:15.718Z,3.92
2019-05-21T04:44:44.011Z,3.92
2019-05-21T04:47:31.732Z,4.03
2019-05-21T04:50:00.024Z,3.60
2019-05-21T04:52:28.447Z,3.90
2019-05-21T04:54:58.386Z,3.75
2019-05-21T04:57:26.676Z,3.87
2019-05-21T04:59:55.046Z,3.83
2019-05-21T05:02:24.352Z,3.65
2019-05-21T05:04:52.722Z,3.70
2019-05-21T05:07:28.341Z,4.20
2019-05-21T05:09:51.017Z,3.98
2019-05-21T05:12:19.318Z,3.60
2019-05-21T05:14:47.674Z,3.50
2019-05-21T05:17:16.046Z,3.42
2019-05-21T05:19:44.353Z,3.75
2019-05-21T05:22:32.005Z,3.17
2019-05-21T05:25:00.380Z,3.10
2019-05-21T05:27:28.660Z,3.40
2019-05-21T05:29:56.967Z,3.02
2019-05-21T05:32:25.261Z,3.40
2019-05-21T05:35:13.107Z,3.10
2019-05-21T05:37:45.171Z,3.62
2019-05-21T05:40:13.471Z,3.12
2019-05-21T05:43:01.395Z,3.10
2019-05-21T05:45:29.790Z,3.62
2019-05-21T05:47:58.080Z,2.85
2019-05-21T05:50:33.927Z,3.35
2019-05-21T05:53:02.282Z,3.35
2019-05-21T05:55:30.677Z,3.70
2019-05-21T05:57:59.048Z,3.42
2019-05-21T06:00:27.402Z,2.65
2019-05-21T06:02:56.534Z,3.05
2019-05-21T06:05:24.890Z,3.42
2019-05-21T06:07:59.682Z,3.50
2019-05-21T06:10:23.294Z,3.33
2019-05-21T06:12:51.659Z,3.37
2019-05-21T06:15:39.299Z,3.12
2019-05-21T06:18:07.661Z,3.42
2019-05-21T06:20:35.958Z,3.50
2019-05-21T06:23:04.335Z,3.60
2019-05-21T06:25:32.674Z,3.47
2019-05-21T06:28:00.957Z,3.50
2019-05-21T06:30:29.376Z,3.35
2019-05-21T06:32:57.750Z,3.47
2019-05-21T06:35:26.917Z,3.42
2019-05-21T06:38:16.590Z,3.90
2019-05-21T06:40:31.261Z,2.85
2019-05-21T06:42:59.661Z,3.58
2019-05-21T06:45:28.019Z,3.58
2019-05-21T06:47:56.382Z,3.47
2019-05-21T06:50:24.681Z,3.27
2019-05-21T06:52:52.971Z,3.20
2019-05-21T06:55:21.344Z,3.55
2019-05-21T06:57:49.651Z,3.22
2019-05-21T07:00:18.152Z,3.40
2019-05-21T07:02:46.501Z,3.60
2019-05-21T07:05:14.865Z,3.10
2019-05-21T07:07:43.242Z,2.92
2019-05-21T07:10:11.671Z,3.20
2019-05-21T07:12:39.979Z,3.20
2019-05-21T07:15:09.174Z,3.47
2019-05-21T07:17:37.503Z,3.20
2019-05-21T07:20:06.073Z,3.10
2019-05-21T07:22:34.494Z,3.30
2019-05-21T07:25:02.781Z,2.87
2019-05-21T07:27:31.017Z,3.40
2019-05-21T07:29:59.273Z,2.98
2019-05-21T07:32:46.965Z,3.20
2019-05-21T07:35:15.300Z,2.83
2019-05-21T07:37:43.536Z,3.42
2019-05-21T07:40:20.501Z,3.33
2019-05-21T07:42:49.206Z,3.08
2019-05-21T07:45:17.507Z,2.70
2019-05-21T07:47:45.825Z,2.72
2019-05-21T07:50:14.427Z,2.95
2019-05-21T07:52:42.770Z,2.98
2019-05-21T07:55:11.077Z,2.83
2019-05-21T07:57:39.393Z,2.80
2019-05-21T08:00:07.869Z,2.92
2019-05-21T08:02:36.110Z,2.40
2019-05-21T08:05:04.853Z,2.77
2019-05-21T08:07:33.154Z,2.15
2019-05-21T08:10:01.472Z,2.90
2019-05-21T08:12:38.953Z,2.52
2019-05-21T08:14:59.681Z,2.25
2019-05-21T08:17:28.045Z,2.83
2019-05-21T08:20:08.096Z,2.70
2019-05-21T08:22:26.328Z,2.85
2019-05-21T08:24:54.584Z,3.58
2019-05-21T08:27:23.072Z,2.40
2019-05-21T08:29:51.448Z,3.08
2019-05-21T08:32:19.831Z,2.72
2019-05-21T08:34:48.176Z,2.45
2019-05-21T08:37:16.541Z,2.45
2019-05-21T08:39:44.844Z,2.60
2019-05-21T08:42:13.112Z,2.70
2019-05-21T08:44:41.420Z,3.25
2019-05-21T08:47:09.837Z,2.92
2019-05-21T08:49:38.158Z,2.37
2019-05-21T08:52:06.516Z,2.90
2019-05-21T08:54:39.409Z,2.98
2019-05-21T08:57:07.735Z,3.17
2019-05-21T08:59:36.064Z,3.30
2019-05-21T09:02:04.477Z,3.10
2019-05-21T09:04:45.998Z,3.60
2019-05-21T09:07:03.735Z,3.15
2019-05-21T09:09:48.304Z,3.40
2019-05-21T09:12:02.073Z,3.65
2019-05-21T09:14:30.476Z,3.27
2019-05-21T09:16:58.803Z,2.95
2019-05-21T09:19:27.120Z,3.20
2019-05-21T09:21:55.437Z,3.22
2019-05-21T09:24:23.766Z,3.60
2019-05-21T09:26:52.109Z,3.22
2019-05-21T09:29:20.445Z,3.05
2019-05-21T09:31:48.754Z,3.00
2019-05-21T09:34:17.008Z,3.60
2019-05-21T09:36:45.328Z,2.85
2019-05-21T09:39:13.651Z,3.37
2019-05-21T09:41:41.969Z,2.90
2019-05-21T09:44:10.336Z,3.22
2019-05-21T09:46:38.663Z,2.90
2019-05-21T09:49:06.980Z,3.55
2019-05-21T09:51:35.324Z,3.10
2019-05-21T09:54:03.573Z,3.77
2019-05-21T09:56:32.466Z,3.30
2019-05-21T09:59:19.159Z,4.10
2019-05-21T10:01:51.890Z,3.35
2019-05-21T10:04:20.201Z,3.77
2019-05-21T10:06:48.593Z,4.25
2019-05-21T10:09:18.568Z,3.50
2019-05-21T10:11:46.936Z,3.50
2019-05-21T10:14:15.269Z,3.50
2019-05-21T10:16:43.663Z,3.25
2019-05-21T10:19:12.098Z,3.85
2019-05-21T10:21:40.419Z,3.62
2019-05-21T10:24:08.773Z,2.98
2019-05-21T10:26:37.108Z,3.20
2019-05-21T10:29:05.484Z,3.08
2019-05-21T10:31:33.746Z,3.37
2019-05-21T10:34:02.063Z,3.27
2019-05-21T10:36:30.488Z,3.10
2019-05-21T10:38:58.878Z,3.47
2019-05-21T10:41:27.126Z,3.10
2019-05-21T10:44:03.028Z,3.17
2019-05-21T10:46:31.345Z,3.02
2019-05-21T10:48:59.670Z,3.47
2019-05-21T10:51:27.988Z,3.12
2019-05-21T10:54:04.460Z,3.20
2019-05-21T10:56:46.736Z,2.83
2019-05-21T10:59:02.940Z,3.25
2019-05-21T11:01:36.020Z,3.27
2019-05-21T11:04:22.701Z,3.35
2019-05-21T11:06:51.392Z,3.20
2019-05-21T11:09:21.408Z,3.40
2019-05-21T11:11:49.724Z,3.17
2019-05-21T11:14:18.056Z,3.65
2019-05-21T11:16:46.382Z,3.27
2019-05-21T11:19:14.698Z,2.92
2019-05-21T11:21:43.016Z,3.20
2019-05-21T11:24:11.410Z,2.92
2019-05-21T11:26:39.886Z,3.12
2019-05-21T11:29:08.216Z,2.90
2019-05-21T11:31:36.601Z,3.30
2019-05-21T11:34:04.934Z,2.98
2019-05-21T11:36:33.251Z,2.85
2019-05-21T11:39:01.568Z,3.02
2019-05-21T11:41:29.896Z,3.10
2019-05-21T11:43:58.157Z,3.25
2019-05-21T11:46:26.468Z,3.40
2019-05-21T11:48:54.788Z,3.72
2019-05-21T11:51:23.112Z,3.58
2019-05-21T11:53:51.478Z,3.27
2019-05-21T11:56:19.800Z,3.42
2019-05-21T11:58:48.128Z,3.52
2019-05-21T12:01:16.535Z,3.30
2019-05-21T12:03:44.887Z,3.65
2019-05-21T12:06:13.220Z,3.25
2019-05-21T12:08:55.634Z,3.17
2019-05-21T12:11:11.692Z,3.40
2019-05-21T12:13:39.975Z,3.00
2019-05-21T12:16:08.353Z,3.62
2019-05-21T12:18:36.680Z,3.80
2019-05-21T12:21:05.006Z,3.17
2019-05-21T12:23:52.602Z,3.40
2019-05-21T12:26:20.916Z,3.22
2019-05-21T12:28:49.232Z,3.33
2019-05-21T12:31:17.549Z,3.33
2019-05-21T12:33:45.868Z,3.27
2019-05-21T12:36:14.194Z,3.25
2019-05-21T12:38:42.517Z,3.15
2019-05-21T12:41:13.567Z,3.22
2019-05-21T12:43:40.873Z,3.42
2019-05-21T12:46:09.205Z,3.75
2019-05-21T12:48:37.545Z,3.37
2019-05-21T12:51:05.867Z,2.85
2019-05-21T12:53:34.181Z,3.08
2019-05-21T12:56:02.440Z,3.22
2019-05-21T12:58:30.764Z,3.22
2019-05-21T13:00:59.162Z,3.80
2019-05-21T13:03:27.515Z,3.20
2019-05-21T13:05:55.836Z,3.33
2019-05-21T13:08:24.248Z,3.25
2019-05-21T13:10:52.583Z,3.45
2019-05-21T13:13:20.911Z,3.47
2019-05-21T13:15:49.162Z,2.85
2019-05-21T13:18:17.503Z,3.10
2019-05-21T13:20:45.923Z,3.67
2019-05-21T13:23:14.243Z,3.30
2019-05-21T13:25:49.974Z,3.40
2019-05-21T13:28:18.302Z,3.25
2019-05-21T13:30:46.595Z,3.45
